Airport View

Enter AWOS ICAO identifier for current METAR.

ex. KFNL

KCID 221852Z AUTO 35013G18KT 10SM SCT047 SCT085 25/14 A3013 RMK AO2 SLP198 T02500144

22 Jul 2019 19:03

Phone: 319-558-5153

Other Area AWOS: KIOW - KVTI - KMXO - KIIB

TAF KCID 221720Z 2218/2318 02012G20KT P6SM SCT035 FM230100 34006KT P6SM SKC